sensor_id;sensor_type;location;lat;lon;timestamp;temperature;humidity
14798;DHT22;7490;63.708;20.368;2023-04-01T00:01:30;-1.50;52.80
14798;DHT22;7490;63.708;20.368;2023-04-01T00:03:55;-1.50;52.90
14798;DHT22;7490;63.708;20.368;2023-04-01T00:06:22;-1.40;53.10
14798;DHT22;7490;63.708;20.368;2023-04-01T00:08:48;-1.40;53.10
14798;DHT22;7490;63.708;20.368;2023-04-01T00:11:14;-1.30;53.10
14798;DHT22;7490;63.708;20.368;2023-04-01T00:13:41;-1.30;53.10
14798;DHT22;7490;63.708;20.368;2023-04-01T00:16:07;-1.30;53.10
14798;DHT22;7490;63.708;20.368;2023-04-01T00:18:33;-1.20;53.10
14798;DHT22;7490;63.708;20.368;2023-04-01T00:20:59;-1.20;53.10
14798;DHT22;7490;63.708;20.368;2023-04-01T00:23:26;-1.20;53.00
14798;DHT22;7490;63.708;20.368;2023-04-01T00:25:51;-1.20;53.00
14798;DHT22;7490;63.708;20.368;2023-04-01T00:28:19;-1.30;53.10
14798;DHT22;7490;63.708;20.368;2023-04-01T00:30:45;-1.20;53.10
14798;DHT22;7490;63.708;20.368;2023-04-01T00:33:11;-1.20;53.10
14798;DHT22;7490;63.708;20.368;2023-04-01T00:35:37;-1.20;53.10
14798;DHT22;7490;63.708;20.368;2023-04-01T00:38:03;-1.20;53.10
14798;DHT22;7490;63.708;20.368;2023-04-01T00:40:33;-1.20;53.10
14798;DHT22;7490;63.708;20.368;2023-04-01T00:42:59;-1.20;53.20
14798;DHT22;7490;63.708;20.368;2023-04-01T00:45:34;-1.20;53.20
14798;DHT22;7490;63.708;20.368;2023-04-01T00:48:24;-1.30;53.10
14798;DHT22;7490;63.708;20.368;2023-04-01T00:53:23;-1.40;53.00
14798;DHT22;7490;63.708;20.368;2023-04-01T00:56:13;-1.40;53.00
14798;DHT22;7490;63.708;20.368;2023-04-01T00:58:48;-1.30;53.20
14798;DHT22;7490;63.708;20.368;2023-04-01T01:01:15;-1.50;53.00
14798;DHT22;7490;63.708;20.368;2023-04-01T01:03:41;-1.50;53.10
14798;DHT22;7490;63.708;20.368;2023-04-01T01:09:12;-1.60;53.20
14798;DHT22;7490;63.708;20.368;2023-04-01T01:11:57;-1.70;53.20
14798;DHT22;7490;63.708;20.368;2023-04-01T01:14:45;-1.80;53.10
14798;DHT22;7490;63.708;20.368;2023-04-01T01:36:29;-2.00;53.60
14798;DHT22;7490;63.708;20.368;2023-04-01T01:38:57;-2.00;53.60
14798;DHT22;7490;63.708;20.368;2023-04-01T01:41:24;-2.10;53.50
14798;DHT22;7490;63.708;20.368;2023-04-01T01:43:56;-2.00;53.60
14798;DHT22;7490;63.708;20.368;2023-04-01T01:46:24;-2.10;53.70
14798;DHT22;7490;63.708;20.368;2023-04-01T01:48:51;-2.10;53.70
14798;DHT22;7490;63.708;20.368;2023-04-01T01:51:19;-2.10;53.80
14798;DHT22;7490;63.708;20.368;2023-04-01T01:53:45;-2.10;53.80
14798;DHT22;7490;63.708;20.368;2023-04-01T01:56:11;-2.10;53.80
14798;DHT22;7490;63.708;20.368;2023-04-01T01:58:47;-2.20;53.70
14798;DHT22;7490;63.708;20.368;2023-04-01T02:01:23;-2.20;53.70
14798;DHT22;7490;63.708;20.368;2023-04-01T02:03:50;-2.20;53.80
14798;DHT22;7490;63.708;20.368;2023-04-01T02:06:19;-2.30;53.90
14798;DHT22;7490;63.708;20.368;2023-04-01T02:08:54;-2.30;53.90
14798;DHT22;7490;63.708;20.368;2023-04-01T02:11:32;-2.40;53.90
14798;DHT22;7490;63.708;20.368;2023-04-01T02:14:10;-2.40;54.00
14798;DHT22;7490;63.708;20.368;2023-04-01T02:16:45;-2.40;53.90
14798;DHT22;7490;63.708;20.368;2023-04-01T02:19:16;-2.50;53.90
14798;DHT22;7490;63.708;20.368;2023-04-01T02:21:50;-2.50;54.00
14798;DHT22;7490;63.708;20.368;2023-04-01T02:24:18;-2.50;54.00
14798;DHT22;7490;63.708;20.368;2023-04-01T02:26:49;-2.50;54.00
14798;DHT22;7490;63.708;20.368;2023-04-01T02:29:17;-2.60;54.00
14798;DHT22;7490;63.708;20.368;2023-04-01T02:31:43;-2.70;54.00
14798;DHT22;7490;63.708;20.368;2023-04-01T02:34:09;-2.70;54.00
14798;DHT22;7490;63.708;20.368;2023-04-01T02:36:36;-2.70;54.00
14798;DHT22;7490;63.708;20.368;2023-04-01T02:39:02;-2.80;54.10
14798;DHT22;7490;63.708;20.368;2023-04-01T02:41:29;-2.80;54.20
14798;DHT22;7490;63.708;20.368;2023-04-01T02:43:56;-2.80;54.30
14798;DHT22;7490;63.708;20.368;2023-04-01T02:46:24;-2.80;55.00
14798;DHT22;7490;63.708;20.368;2023-04-01T02:48:50;-2.90;54.30
14798;DHT22;7490;63.708;20.368;2023-04-01T02:51:15;-2.90;54.40
14798;DHT22;7490;63.708;20.368;2023-04-01T02:53:41;-2.90;54.40
14798;DHT22;7490;63.708;20.368;2023-04-01T02:56:07;-3.00;54.40
14798;DHT22;7490;63.708;20.368;2023-04-01T02:58:32;-3.00;54.50
14798;DHT22;7490;63.708;20.368;2023-04-01T03:00:58;-3.00;54.50
14798;DHT22;7490;63.708;20.368;2023-04-01T03:03:24;-3.10;54.60
14798;DHT22;7490;63.708;20.368;2023-04-01T03:05:49;-3.10;54.70
14798;DHT22;7490;63.708;20.368;2023-04-01T03:08:15;-3.10;54.90
14798;DHT22;7490;63.708;20.368;2023-04-01T03:10:41;-3.10;55.00
14798;DHT22;7490;63.708;20.368;2023-04-01T03:13:06;-3.10;55.00
14798;DHT22;7490;63.708;20.368;2023-04-01T03:15:32;-3.10;55.10
14798;DHT22;7490;63.708;20.368;2023-04-01T03:17:58;-3.00;55.10
14798;DHT22;7490;63.708;20.368;2023-04-01T03:20:23;-3.10;55.00
14798;DHT22;7490;63.708;20.368;2023-04-01T03:22:49;-3.10;55.00
14798;DHT22;7490;63.708;20.368;2023-04-01T03:25:15;-3.20;55.00
14798;DHT22;7490;63.708;20.368;2023-04-01T03:27:40;-3.20;55.10
14798;DHT22;7490;63.708;20.368;2023-04-01T03:30:07;-3.20;55.10
14798;DHT22;7490;63.708;20.368;2023-04-01T03:32:33;-3.20;55.10
14798;DHT22;7490;63.708;20.368;2023-04-01T03:34:59;-3.20;55.00
14798;DHT22;7490;63.708;20.368;2023-04-01T03:37:24;-3.20;55.00
14798;DHT22;7490;63.708;20.368;2023-04-01T03:39:50;-3.30;55.00
14798;DHT22;7490;63.708;20.368;2023-04-01T03:42:16;-3.30;55.00
14798;DHT22;7490;63.708;20.368;2023-04-01T03:44:42;-3.30;55.00
14798;DHT22;7490;63.708;20.368;2023-04-01T03:47:07;-3.30;55.00
14798;DHT22;7490;63.708;20.368;2023-04-01T03:49:34;-3.40;55.00
14798;DHT22;7490;63.708;20.368;2023-04-01T03:52:00;-3.40;55.10
14798;DHT22;7490;63.708;20.368;2023-04-01T03:54:26;-3.40;55.10
14798;DHT22;7490;63.708;20.368;2023-04-01T03:56:51;-3.50;55.10
14798;DHT22;7490;63.708;20.368;2023-04-01T03:59:17;-3.50;55.30
14798;DHT22;7490;63.708;20.368;2023-04-01T04:01:43;-3.50;55.30
14798;DHT22;7490;63.708;20.368;2023-04-01T04:04:11;-3.40;55.50
14798;DHT22;7490;63.708;20.368;2023-04-01T04:06:38;-3.30;55.60
14798;DHT22;7490;63.708;20.368;2023-04-01T04:09:04;-3.40;55.50
14798;DHT22;7490;63.708;20.368;2023-04-01T04:11:31;-3.40;55.60
14798;DHT22;7490;63.708;20.368;2023-04-01T04:13:57;-3.20;55.70
14798;DHT22;7490;63.708;20.368;2023-04-01T04:16:22;-3.10;55.80
14798;DHT22;7490;63.708;20.368;2023-04-01T04:18:48;-3.30;55.80
14798;DHT22;7490;63.708;20.368;2023-04-01T04:21:14;-3.30;55.70
14798;DHT22;7490;63.708;20.368;2023-04-01T04:23:41;-3.30;55.70
14798;DHT22;7490;63.708;20.368;2023-04-01T04:26:08;-3.20;55.80
14798;DHT22;7490;63.708;20.368;2023-04-01T04:28:34;-3.20;55.80
14798;DHT22;7490;63.708;20.368;2023-04-01T04:31:01;-3.20;55.90
14798;DHT22;7490;63.708;20.368;2023-04-01T04:33:27;-3.10;55.90
14798;DHT22;7490;63.708;20.368;2023-04-01T04:35:55;-3.10;55.90
14798;DHT22;7490;63.708;20.368;2023-04-01T04:38:21;-3.00;56.10
14798;DHT22;7490;63.708;20.368;2023-04-01T04:40:47;-2.70;56.90
14798;DHT22;7490;63.708;20.368;2023-04-01T04:43:14;-2.10;57.80
14798;DHT22;7490;63.708;20.368;2023-04-01T04:45:41;-1.20;58.10
14798;DHT22;7490;63.708;20.368;2023-04-01T04:48:08;-0.20;57.80
14798;DHT22;7490;63.708;20.368;2023-04-01T04:50:35;0.80;57.20
14798;DHT22;7490;63.708;20.368;2023-04-01T04:53:01;1.70;56.30
14798;DHT22;7490;63.708;20.368;2023-04-01T04:55:27;2.60;55.60
14798;DHT22;7490;63.708;20.368;2023-04-01T04:57:52;3.50;54.80
14798;DHT22;7490;63.708;20.368;2023-04-01T05:00:18;4.30;54.10
14798;DHT22;7490;63.708;20.368;2023-04-01T05:02:44;5.10;53.20
14798;DHT22;7490;63.708;20.368;2023-04-01T05:05:10;5.80;52.40
14798;DHT22;7490;63.708;20.368;2023-04-01T05:07:36;6.30;51.30
14798;DHT22;7490;63.708;20.368;2023-04-01T05:10:02;6.90;50.80
14798;DHT22;7490;63.708;20.368;2023-04-01T05:12:28;7.40;50.20
14798;DHT22;7490;63.708;20.368;2023-04-01T05:14:54;8.00;49.50
14798;DHT22;7490;63.708;20.368;2023-04-01T05:17:19;8.60;48.70
14798;DHT22;7490;63.708;20.368;2023-04-01T05:19:45;9.20;47.90
14798;DHT22;7490;63.708;20.368;2023-04-01T05:22:11;9.70;47.00
14798;DHT22;7490;63.708;20.368;2023-04-01T05:24:36;10.30;46.30
14798;DHT22;7490;63.708;20.368;2023-04-01T05:27:02;10.80;45.30
14798;DHT22;7490;63.708;20.368;2023-04-01T05:29:28;11.30;44.60
14798;DHT22;7490;63.708;20.368;2023-04-01T05:31:53;11.70;43.80
14798;DHT22;7490;63.708;20.368;2023-04-01T05:34:19;12.20;43.00
14798;DHT22;7490;63.708;20.368;2023-04-01T05:36:44;12.60;42.40
14798;DHT22;7490;63.708;20.368;2023-04-01T05:39:10;12.90;41.50
14798;DHT22;7490;63.708;20.368;2023-04-01T05:41:37;13.30;40.50
14798;DHT22;7490;63.708;20.368;2023-04-01T05:44:03;13.60;40.00
14798;DHT22;7490;63.708;20.368;2023-04-01T05:46:29;14.00;39.50
14798;DHT22;7490;63.708;20.368;2023-04-01T05:48:55;14.30;38.70
14798;DHT22;7490;63.708;20.368;2023-04-01T05:51:21;14.70;38.00
14798;DHT22;7490;63.708;20.368;2023-04-01T05:53:46;15.10;37.40
14798;DHT22;7490;63.708;20.368;2023-04-01T05:56:12;15.50;36.70
14798;DHT22;7490;63.708;20.368;2023-04-01T05:58:38;15.90;36.00
14798;DHT22;7490;63.708;20.368;2023-04-01T06:01:07;16.20;35.40
14798;DHT22;7490;63.708;20.368;2023-04-01T06:03:34;16.60;34.60
14798;DHT22;7490;63.708;20.368;2023-04-01T06:05:59;16.90;34.10
14798;DHT22;7490;63.708;20.368;2023-04-01T06:08:27;17.20;33.50
14798;DHT22;7490;63.708;20.368;2023-04-01T06:27:25;19.10;29.90
14798;DHT22;7490;63.708;20.368;2023-04-01T06:52:16;21.80;26.60
14798;DHT22;7490;63.708;20.368;2023-04-01T06:57:42;22.50;26.30
14798;DHT22;7490;63.708;20.368;2023-04-01T07:05:23;23.10;25.50
14798;DHT22;7490;63.708;20.368;2023-04-01T07:07:53;23.20;25.40
14798;DHT22;7490;63.708;20.368;2023-04-01T07:12:58;23.60;24.60
14798;DHT22;7490;63.708;20.368;2023-04-01T07:15:36;23.70;24.60
14798;DHT22;7490;63.708;20.368;2023-04-01T07:18:10;23.90;24.10
14798;DHT22;7490;63.708;20.368;2023-04-01T07:20:38;24.10;24.10
14798;DHT22;7490;63.708;20.368;2023-04-01T07:23:44;24.30;24.00
14798;DHT22;7490;63.708;20.368;2023-04-01T07:26:23;24.50;23.50
14798;DHT22;7490;63.708;20.368;2023-04-01T07:28:52;24.70;23.20
14798;DHT22;7490;63.708;20.368;2023-04-01T07:31:41;24.90;23.50
14798;DHT22;7490;63.708;20.368;2023-04-01T07:40:39;25.60;23.00
14798;DHT22;7490;63.708;20.368;2023-04-01T07:56:28;26.40;21.70
14798;DHT22;7490;63.708;20.368;2023-04-01T08:15:26;27.50;21.10
14798;DHT22;7490;63.708;20.368;2023-04-01T08:23:36;28.00;20.80
14798;DHT22;7490;63.708;20.368;2023-04-01T08:26:13;28.00;20.40
14798;DHT22;7490;63.708;20.368;2023-04-01T08:28:46;28.10;20.50
14798;DHT22;7490;63.708;20.368;2023-04-01T08:33:53;28.40;20.20
14798;DHT22;7490;63.708;20.368;2023-04-01T08:36:34;28.50;20.20
14798;DHT22;7490;63.708;20.368;2023-04-01T08:39:17;28.50;20.00
14798;DHT22;7490;63.708;20.368;2023-04-01T08:41:59;28.60;20.00
14798;DHT22;7490;63.708;20.368;2023-04-01T08:47:38;28.80;19.90
14798;DHT22;7490;63.708;20.368;2023-04-01T08:53:26;28.80;19.60
14798;DHT22;7490;63.708;20.368;2023-04-01T08:56:22;28.90;19.70
14798;DHT22;7490;63.708;20.368;2023-04-01T09:04:26;28.80;19.60
14798;DHT22;7490;63.708;20.368;2023-04-01T09:38:57;29.10;18.80
14798;DHT22;7490;63.708;20.368;2023-04-01T09:41:32;29.10;19.00
14798;DHT22;7490;63.708;20.368;2023-04-01T10:03:09;29.00;18.60
14798;DHT22;7490;63.708;20.368;2023-04-01T10:08:49;28.80;18.70
14798;DHT22;7490;63.708;20.368;2023-04-01T10:27:30;28.10;18.60
14798;DHT22;7490;63.708;20.368;2023-04-01T10:33:05;28.10;18.70
14798;DHT22;7490;63.708;20.368;2023-04-01T11:15:17;26.90;18.30
14798;DHT22;7490;63.708;20.368;2023-04-01T11:23:29;26.00;18.60
14798;DHT22;7490;63.708;20.368;2023-04-01T11:29:07;24.40;19.10
14798;DHT22;7490;63.708;20.368;2023-04-01T11:34:48;21.10;20.70
14798;DHT22;7490;63.708;20.368;2023-04-01T12:05:19;14.20;25.70
14798;DHT22;7490;63.708;20.368;2023-04-01T12:11:00;13.80;26.10
14798;DHT22;7490;63.708;20.368;2023-04-01T12:30:01;13.10;27.40
14798;DHT22;7490;63.708;20.368;2023-04-01T12:35:53;13.00;27.40
14798;DHT22;7490;63.708;20.368;2023-04-01T12:55:43;12.50;27.60
14798;DHT22;7490;63.708;20.368;2023-04-01T12:58:20;12.50;27.70
14798;DHT22;7490;63.708;20.368;2023-04-01T13:28:20;11.70;28.60
14798;DHT22;7490;63.708;20.368;2023-04-01T13:33:50;11.70;28.70
14798;DHT22;7490;63.708;20.368;2023-04-01T13:39:49;11.60;28.80
14798;DHT22;7490;63.708;20.368;2023-04-01T13:42:37;11.60;29.00
14798;DHT22;7490;63.708;20.368;2023-04-01T13:45:21;11.50;29.10
14798;DHT22;7490;63.708;20.368;2023-04-01T13:56:34;11.20;29.30
14798;DHT22;7490;63.708;20.368;2023-04-01T13:59:32;11.20;29.40
14798;DHT22;7490;63.708;20.368;2023-04-01T14:10:36;10.80;29.70
14798;DHT22;7490;63.708;20.368;2023-04-01T14:13:23;10.70;30.00
14798;DHT22;7490;63.708;20.368;2023-04-01T14:16:29;10.60;30.00
14798;DHT22;7490;63.708;20.368;2023-04-01T14:21:38;10.50;30.10
14798;DHT22;7490;63.708;20.368;2023-04-01T14:27:25;10.40;30.50
14798;DHT22;7490;63.708;20.368;2023-04-01T14:49:41;9.80;31.70
14798;DHT22;7490;63.708;20.368;2023-04-01T14:52:16;9.80;31.80
14798;DHT22;7490;63.708;20.368;2023-04-01T14:54:44;9.70;31.80
14798;DHT22;7490;63.708;20.368;2023-04-01T14:57:14;9.70;32.00
14798;DHT22;7490;63.708;20.368;2023-04-01T14:59:49;9.70;32.10
14798;DHT22;7490;63.708;20.368;2023-04-01T15:13:51;9.40;32.30
14798;DHT22;7490;63.708;20.368;2023-04-01T15:26:53;8.90;32.70
14798;DHT22;7490;63.708;20.368;2023-04-01T15:40:52;8.50;33.20
14798;DHT22;7490;63.708;20.368;2023-04-01T15:43:45;8.40;33.50
14798;DHT22;7490;63.708;20.368;2023-04-01T15:46:20;8.40;33.60
14798;DHT22;7490;63.708;20.368;2023-04-01T15:48:55;8.50;33.70
14798;DHT22;7490;63.708;20.368;2023-04-01T15:51:54;8.30;33.70
14798;DHT22;7490;63.708;20.368;2023-04-01T16:05:42;7.90;34.20
14798;DHT22;7490;63.708;20.368;2023-04-01T16:11:01;7.80;34.30
14798;DHT22;7490;63.708;20.368;2023-04-01T16:21:58;7.60;34.70
14798;DHT22;7490;63.708;20.368;2023-04-01T16:30:38;7.30;35.40
14798;DHT22;7490;63.708;20.368;2023-04-01T16:34:17;7.30;35.40
14798;DHT22;7490;63.708;20.368;2023-04-01T16:36:28;7.20;35.50
14798;DHT22;7490;63.708;20.368;2023-04-01T16:39:08;7.10;35.50
14798;DHT22;7490;63.708;20.368;2023-04-01T16:44:29;6.90;35.70
14798;DHT22;7490;63.708;20.368;2023-04-01T16:47:12;6.90;35.80
14798;DHT22;7490;63.708;20.368;2023-04-01T16:49:53;6.80;36.00
14798;DHT22;7490;63.708;20.368;2023-04-01T16:55:57;6.70;36.40
14798;DHT22;7490;63.708;20.368;2023-04-01T16:58:36;6.70;36.40
14798;DHT22;7490;63.708;20.368;2023-04-01T17:01:19;6.70;36.50
14798;DHT22;7490;63.708;20.368;2023-04-01T17:03:53;6.80;36.70
14798;DHT22;7490;63.708;20.368;2023-04-01T17:12:47;6.80;36.70
14798;DHT22;7490;63.708;20.368;2023-04-01T17:15:31;6.60;37.20
14798;DHT22;7490;63.708;20.368;2023-04-01T17:35:21;6.30;38.20
14798;DHT22;7490;63.708;20.368;2023-04-01T17:46:24;6.10;39.90
14798;DHT22;7490;63.708;20.368;2023-04-01T17:49:18;6.00;40.40
14798;DHT22;7490;63.708;20.368;2023-04-01T17:57:22;5.70;41.60
14798;DHT22;7490;63.708;20.368;2023-04-01T18:00:24;5.60;42.50
14798;DHT22;7490;63.708;20.368;2023-04-01T18:05:30;5.40;43.30
14798;DHT22;7490;63.708;20.368;2023-04-01T18:08:15;5.60;43.90
14798;DHT22;7490;63.708;20.368;2023-04-01T18:11:00;5.30;44.20
14798;DHT22;7490;63.708;20.368;2023-04-01T18:34:55;4.30;46.90
14798;DHT22;7490;63.708;20.368;2023-04-01T18:37:33;4.30;47.20
14798;DHT22;7490;63.708;20.368;2023-04-01T18:53:39;3.80;48.40
14798;DHT22;7490;63.708;20.368;2023-04-01T18:56:37;3.70;48.90
14798;DHT22;7490;63.708;20.368;2023-04-01T18:59:26;3.60;49.00
14798;DHT22;7490;63.708;20.368;2023-04-01T19:04:50;3.40;49.20
14798;DHT22;7490;63.708;20.368;2023-04-01T19:10:26;3.20;49.70
14798;DHT22;7490;63.708;20.368;2023-04-01T19:26:26;2.80;51.20
14798;DHT22;7490;63.708;20.368;2023-04-01T19:29:18;2.80;51.10
14798;DHT22;7490;63.708;20.368;2023-04-01T19:34:37;2.70;51.50
14798;DHT22;7490;63.708;20.368;2023-04-01T19:40:06;2.60;51.80
14798;DHT22;7490;63.708;20.368;2023-04-01T19:45:51;2.50;52.20
14798;DHT22;7490;63.708;20.368;2023-04-01T19:48:37;2.50;52.20
14798;DHT22;7490;63.708;20.368;2023-04-01T19:59:38;2.30;52.90
14798;DHT22;7490;63.708;20.368;2023-04-01T20:04:44;2.20;53.20
14798;DHT22;7490;63.708;20.368;2023-04-01T20:07:20;2.20;53.50
14798;DHT22;7490;63.708;20.368;2023-04-01T20:10:08;2.10;53.70
14798;DHT22;7490;63.708;20.368;2023-04-01T20:17:57;2.00;54.10
14798;DHT22;7490;63.708;20.368;2023-04-01T20:20:29;2.00;54.30
14798;DHT22;7490;63.708;20.368;2023-04-01T20:23:07;1.90;54.50
14798;DHT22;7490;63.708;20.368;2023-04-01T20:25:59;1.90;54.80
14798;DHT22;7490;63.708;20.368;2023-04-01T20:28:48;1.90;54.80
14798;DHT22;7490;63.708;20.368;2023-04-01T20:32:06;1.80;54.90
14798;DHT22;7490;63.708;20.368;2023-04-01T20:40:59;1.60;54.80
14798;DHT22;7490;63.708;20.368;2023-04-01T20:48:27;1.50;55.10
14798;DHT22;7490;63.708;20.368;2023-04-01T20:51:13;1.50;55.40
14798;DHT22;7490;63.708;20.368;2023-04-01T20:53:42;1.40;55.30
14798;DHT22;7490;63.708;20.368;2023-04-01T20:59:09;1.30;55.50
14798;DHT22;7490;63.708;20.368;2023-04-01T21:09:18;1.10;55.80
14798;DHT22;7490;63.708;20.368;2023-04-01T21:15:11;1.00;55.90
14798;DHT22;7490;63.708;20.368;2023-04-01T21:23:05;0.80;56.00
14798;DHT22;7490;63.708;20.368;2023-04-01T21:28:41;0.80;56.40
14798;DHT22;7490;63.708;20.368;2023-04-01T21:34:32;0.70;56.70
14798;DHT22;7490;63.708;20.368;2023-04-01T22:02:31;0.40;57.30
14798;DHT22;7490;63.708;20.368;2023-04-01T22:10:38;0.30;57.30
14798;DHT22;7490;63.708;20.368;2023-04-01T22:13:13;0.30;57.40
14798;DHT22;7490;63.708;20.368;2023-04-01T22:16:37;0.20;57.40
14798;DHT22;7490;63.708;20.368;2023-04-01T22:21:33;0.20;57.50
14798;DHT22;7490;63.708;20.368;2023-04-01T22:24:17;0.20;57.60
14798;DHT22;7490;63.708;20.368;2023-04-01T22:32:11;0.10;57.60
14798;DHT22;7490;63.708;20.368;2023-04-01T22:40:47;-0.10;58.00
14798;DHT22;7490;63.708;20.368;2023-04-01T22:43:32;-0.10;58.10
14798;DHT22;7490;63.708;20.368;2023-04-01T22:46:03;-0.10;58.20
14798;DHT22;7490;63.708;20.368;2023-04-01T22:48:43;-0.10;58.20
14798;DHT22;7490;63.708;20.368;2023-04-01T22:53:59;-0.10;58.20
14798;DHT22;7490;63.708;20.368;2023-04-01T22:56:50;0.00;58.20
14798;DHT22;7490;63.708;20.368;2023-04-01T22:59:41;0.00;58.40
14798;DHT22;7490;63.708;20.368;2023-04-01T23:02:29;0.00;58.20
14798;DHT22;7490;63.708;20.368;2023-04-01T23:04:59;0.00;58.10
14798;DHT22;7490;63.708;20.368;2023-04-01T23:10:26;0.00;58.10
14798;DHT22;7490;63.708;20.368;2023-04-01T23:12:56;0.00;58.20
14798;DHT22;7490;63.708;20.368;2023-04-01T23:15:23;0.00;58.10
14798;DHT22;7490;63.708;20.368;2023-04-01T23:24:06;0.10;58.10
14798;DHT22;7490;63.708;20.368;2023-04-01T23:26:40;0.20;58.00
14798;DHT22;7490;63.708;20.368;2023-04-01T23:29:18;0.20;57.80
14798;DHT22;7490;63.708;20.368;2023-04-01T23:31:45;0.20;57.70
14798;DHT22;7490;63.708;20.368;2023-04-01T23:36:42;0.20;57.50
14798;DHT22;7490;63.708;20.368;2023-04-01T23:39:27;0.10;57.40
14798;DHT22;7490;63.708;20.368;2023-04-01T23:41:59;0.10;57.50
14798;DHT22;7490;63.708;20.368;2023-04-01T23:44:26;0.10;57.40
14798;DHT22;7490;63.708;20.368;2023-04-01T23:46:53;0.00;57.20
14798;DHT22;7490;63.708;20.368;2023-04-01T23:49:33;0.00;57.20
14798;DHT22;7490;63.708;20.368;2023-04-01T23:52:14;0.00;57.20
14798;DHT22;7490;63.708;20.368;2023-04-01T23:55:01;-0.10;57.10
14798;DHT22;7490;63.708;20.368;2023-04-01T23:57:33;-0.10;57.10
